Rochedo, Brazil
Current Conditions -  °F | °C
As of 6:00 PM on Saturday 25 Oct 2014 (Local Time) from SBCG Reporting Station
Thunderstorm Thunderstorm  
Wind Chill: 77°   Ceiling: Unl
Heat Index: 79°   Visibility: 5mi
Dew Point: 64°   Wind: 6mph
Humidity: 65%   Direction: 310°NW
Pressure: 29.88"   Gusts: NA
Location:  19.95°S, 54.87°W
Report Text: SBCG 252100Z 31005KT 280V340 8000 TS VCSH FEW010 SCT030 FEW040CB 25/18 Q1012
Loading
Personal Weather Stations






























Interactive Weather Map
Tropical Storm Tracking
New forecast layout! Learn more

10-Day Weather Forecast

Advertisements
Track Severe Weather on mobile